createdAt,value
2023-10-02T00:13:29.208Z,0
2023-10-02T00:28:25.054Z,0
2023-10-02T00:43:21.008Z,0.01
2023-10-02T00:58:16.903Z,0.01
2023-10-02T01:13:12.899Z,0
2023-10-02T01:28:08.931Z,0.01
2023-10-02T01:43:05.196Z,0.01
2023-10-02T01:58:01.535Z,0.01
2023-10-02T02:12:57.962Z,0
2023-10-02T02:27:53.769Z,0
2023-10-02T02:42:50.406Z,0
2023-10-02T02:57:47.101Z,0.02
2023-10-02T03:12:42.954Z,0
2023-10-02T03:27:39.041Z,0.01
2023-10-02T03:42:35.666Z,0
2023-10-02T03:57:32.042Z,0.02
2023-10-02T04:12:28.547Z,0
2023-10-02T04:27:24.414Z,0
2023-10-02T04:42:20.834Z,0
2023-10-02T04:57:16.565Z,0
2023-10-02T05:12:12.859Z,0.02
2023-10-02T05:27:09.211Z,0.03
2023-10-02T05:42:05.515Z,0.02
2023-10-02T05:57:01.403Z,0.03
2023-10-02T06:11:57.580Z,0.06
2023-10-02T06:26:53.919Z,0.03
2023-10-02T06:41:49.563Z,0.05
2023-10-02T06:56:46.387Z,0.07
2023-10-02T07:11:42.435Z,0.07
2023-10-02T07:26:39.249Z,0.09
2023-10-02T07:41:36.126Z,0.1
2023-10-02T07:56:32.692Z,0.08
2023-10-02T08:11:28.377Z,0.1
2023-10-02T08:26:27.282Z,0.11
2023-10-02T08:41:21.717Z,0.13
2023-10-02T08:56:18.548Z,0.7
2023-10-02T09:11:14.995Z,0.8
2023-10-02T09:26:12.202Z,1.03
2023-10-02T09:41:09.211Z,0.8
2023-10-02T09:56:06.270Z,0.31
2023-10-02T10:11:03.174Z,0.46
2023-10-02T10:26:00.097Z,0.48
2023-10-02T10:40:57.151Z,1.32
2023-10-02T10:55:53.894Z,0.31
2023-10-02T11:10:50.565Z,1.49
2023-10-02T11:25:47.631Z,1.89
2023-10-02T11:40:45.156Z,2.48
2023-10-02T11:55:41.694Z,0.94
2023-10-02T12:10:38.138Z,1.73
2023-10-02T12:25:34.753Z,1.19
2023-10-02T12:40:31.348Z,0.56
2023-10-02T12:55:27.754Z,0.6
2023-10-02T13:10:24.155Z,0.3
2023-10-02T13:25:20.444Z,0.21
2023-10-02T13:40:16.960Z,0.21
2023-10-02T13:55:13.526Z,0.2
2023-10-02T14:10:09.849Z,0.14
2023-10-02T14:25:05.871Z,0.62
2023-10-02T14:40:01.643Z,0.13
2023-10-02T14:54:57.521Z,0.14
2023-10-02T15:09:53.672Z,0.1
2023-10-02T15:24:49.734Z,0.1
2023-10-02T15:39:45.693Z,0.17
2023-10-02T15:54:43.006Z,0.14
2023-10-02T16:09:37.926Z,0.1
2023-10-02T16:24:34.137Z,0.07
2023-10-02T16:39:30.464Z,0.05
2023-10-02T16:54:26.368Z,0.02
2023-10-02T17:09:21.152Z,0.02
2023-10-02T17:24:16.955Z,0.02
2023-10-02T17:39:12.977Z,0.01
2023-10-02T17:54:08.491Z,0
2023-10-02T18:09:04.422Z,0
2023-10-02T18:24:00.281Z,0
2023-10-02T18:38:56.160Z,0
2023-10-02T18:53:52.222Z,0
2023-10-02T19:08:48.248Z,0
2023-10-02T19:23:44.452Z,0
2023-10-02T19:38:40.384Z,0
2023-10-02T19:53:36.381Z,0
2023-10-02T20:08:32.593Z,0
2023-10-02T20:23:41.722Z,0
2023-10-02T20:38:24.345Z,0
2023-10-02T20:53:20.617Z,0
2023-10-02T21:08:16.621Z,0
2023-10-02T21:23:12.538Z,0
2023-10-02T21:38:08.846Z,0
2023-10-02T21:53:05.529Z,0
2023-10-02T22:08:01.250Z,0
2023-10-02T22:22:57.177Z,0
2023-10-02T22:37:54.148Z,0.01
2023-10-02T22:52:50.344Z,0
2023-10-02T23:07:46.368Z,0
2023-10-02T23:22:42.794Z,0
2023-10-02T23:37:39.159Z,0.01
2023-10-02T23:52:35.131Z,0
